createdAt,value
2017-09-20T00:01:35.017Z,26.17
2017-09-20T00:04:01.987Z,27.70
2017-09-20T00:06:34.874Z,28.13
2017-09-20T00:09:03.537Z,26.03
2017-09-20T00:11:29.465Z,26.70
2017-09-20T00:13:55.398Z,24.70
2017-09-20T00:16:27.061Z,24.90
2017-09-20T00:18:54.013Z,26.37
2017-09-20T00:21:21.981Z,25.13
2017-09-20T00:23:53.038Z,26.47
2017-09-20T00:26:20.007Z,26.90
2017-09-20T00:28:47.749Z,27.17
2017-09-20T00:31:13.678Z,28.10
2017-09-20T00:33:43.842Z,30.40
2017-09-20T00:36:10.549Z,30.03
2017-09-20T00:38:37.502Z,27.70
2017-09-20T00:41:03.460Z,30.97
2017-09-20T00:43:31.423Z,29.37
2017-09-20T00:46:05.442Z,27.70
2017-09-20T00:48:31.439Z,30.33
2017-09-20T00:50:57.505Z,28.87
2017-09-20T00:53:23.502Z,28.57
2017-09-20T00:55:50.450Z,31.03
2017-09-20T00:58:21.800Z,31.27
2017-09-20T01:00:48.738Z,31.83
2017-09-20T01:03:15.702Z,30.07
2017-09-20T01:05:45.242Z,31.70
2017-09-20T01:08:12.253Z,33.07
2017-09-20T01:10:38.360Z,32.13
2017-09-20T02:25:22.408Z,35.40
2017-09-20T02:27:48.386Z,37.40
2017-09-20T02:30:15.421Z,39.80
2017-09-20T02:32:41.467Z,38.00
2017-09-20T02:35:08.186Z,41.40
2017-09-20T02:37:34.229Z,38.40
2017-09-20T02:40:00.960Z,37.80
2017-09-20T02:42:31.698Z,40.30
2017-09-20T02:44:59.680Z,38.07
2017-09-20T02:47:26.442Z,40.20
2017-09-20T02:49:53.166Z,39.83
2017-09-20T02:52:19.102Z,41.00
2017-09-20T02:54:46.187Z,42.63
2017-09-20T02:57:12.181Z,42.70
2017-09-20T02:59:38.211Z,40.50
2017-09-20T03:02:04.890Z,40.87
2017-09-20T03:04:30.810Z,38.87
2017-09-20T03:06:57.822Z,42.90
2017-09-20T03:09:25.818Z,40.40
2017-09-20T03:12:04.634Z,38.00
2017-09-20T03:14:42.260Z,40.60
2017-09-20T03:17:08.245Z,38.53
2017-09-20T03:19:34.267Z,39.17
2017-09-20T03:22:00.310Z,41.77
2017-09-20T03:24:28.078Z,40.10
2017-09-20T03:27:01.086Z,41.27
2017-09-20T03:29:28.821Z,40.87
2017-09-20T03:31:59.353Z,38.47
2017-09-20T03:34:25.401Z,40.77
2017-09-20T03:36:52.118Z,41.50
2017-09-20T03:39:18.053Z,40.50
2017-09-20T03:41:43.989Z,39.20
2017-09-20T03:44:18.017Z,42.13
2017-09-20T03:46:44.739Z,42.00
2017-09-20T03:49:12.749Z,42.17
2017-09-20T03:51:38.757Z,41.20
2017-09-20T03:54:06.571Z,44.07
2017-09-20T03:56:33.575Z,45.20
2017-09-20T03:59:01.553Z,44.17
2017-09-20T04:01:28.289Z,41.47
2017-09-20T04:03:54.325Z,42.53
2017-09-20T04:06:24.945Z,44.00
2017-09-20T04:08:50.981Z,42.07
2017-09-20T04:11:16.922Z,44.00
2017-09-20T04:13:51.040Z,41.67
2017-09-20T04:16:17.775Z,44.30
2017-09-20T04:18:44.511Z,44.77
2017-09-20T04:21:14.425Z,43.33
2017-09-20T04:23:40.451Z,41.70
2017-09-20T04:26:07.418Z,42.50
2017-09-20T04:28:33.453Z,43.60
2017-09-20T04:31:00.397Z,43.37
2017-09-20T04:33:26.425Z,45.37
2017-09-20T04:35:53.382Z,41.47
2017-09-20T04:38:31.109Z,42.50
2017-09-20T04:40:57.138Z,43.50
2017-09-20T04:43:24.162Z,43.57
2017-09-20T04:45:51.918Z,41.80
2017-09-20T04:48:21.217Z,44.50
2017-09-20T04:50:47.258Z,44.13
2017-09-20T04:53:13.284Z,46.00
2017-09-20T04:55:44.343Z,40.53
2017-09-20T04:58:24.637Z,41.47
2017-09-20T05:00:59.238Z,42.17
2017-09-20T05:03:26.264Z,43.63
2017-09-20T05:05:52.321Z,41.70
2017-09-20T05:08:19.380Z,45.10
2017-09-20T05:10:47.317Z,40.60
2017-09-20T05:13:14.098Z,44.23
2017-09-20T05:15:41.152Z,41.27
2017-09-20T05:18:08.174Z,41.70
2017-09-20T05:20:35.143Z,40.10
2017-09-20T05:23:05.874Z,40.07
2017-09-20T05:25:33.626Z,39.30
2017-09-20T05:27:59.658Z,38.80
2017-09-20T05:30:27.349Z,40.30
2017-09-20T05:32:57.255Z,39.93
2017-09-20T05:35:25.013Z,37.90
2017-09-20T05:37:51.787Z,36.60
2017-09-20T05:40:18.324Z,38.73
2017-09-20T05:42:50.567Z,37.70
2017-09-20T05:45:16.589Z,36.80
2017-09-20T05:47:47.425Z,37.20
2017-09-20T05:50:14.390Z,39.03
2017-09-20T05:52:40.421Z,37.97
2017-09-20T05:55:17.127Z,39.67
2017-09-20T05:57:51.633Z,41.53
2017-09-20T06:00:18.359Z,42.37
2017-09-20T06:02:44.389Z,38.63
2017-09-20T06:05:10.421Z,39.63
2017-09-20T06:07:36.449Z,37.23
2017-09-20T06:10:04.239Z,37.70
2017-09-20T06:12:31.996Z,38.00
2017-09-20T06:15:03.489Z,38.10
2017-09-20T06:17:34.986Z,38.57
2017-09-20T06:20:03.010Z,39.17
2017-09-20T06:22:28.998Z,41.53
2017-09-20T06:25:05.610Z,40.90
2017-09-20T06:27:38.173Z,38.60
2017-09-20T06:30:09.708Z,37.10
2017-09-20T06:32:42.182Z,40.27
2017-09-20T06:35:09.968Z,37.37
2017-09-20T06:37:36.731Z,35.90
2017-09-20T06:40:04.678Z,37.23
2017-09-20T06:42:37.417Z,36.97
2017-09-20T06:45:04.343Z,36.00
2017-09-20T06:47:30.280Z,36.57
2017-09-20T06:49:56.217Z,35.10
2017-09-20T06:52:22.163Z,38.47
2017-09-20T06:54:48.085Z,39.07
2017-09-20T06:57:14.023Z,39.40
2017-09-20T06:59:39.965Z,35.60
2017-09-20T07:02:05.901Z,34.70
2017-09-20T07:04:36.026Z,35.27
2017-09-20T07:07:03.718Z,35.40
2017-09-20T07:09:29.666Z,32.00
2017-09-20T07:11:55.591Z,31.63
2017-09-20T07:14:21.527Z,33.50
2017-09-20T07:16:47.457Z,33.20
2017-09-20T07:19:13.378Z,30.47
2017-09-20T07:21:39.309Z,32.50
2017-09-20T07:24:05.242Z,31.20
2017-09-20T07:26:31.194Z,32.00
2017-09-20T07:29:00.396Z,30.13
2017-09-20T07:31:26.322Z,31.37
2017-09-20T07:33:53.253Z,33.80
2017-09-20T07:36:19.210Z,29.73
2017-09-20T07:38:45.139Z,28.77
2017-09-20T07:41:11.166Z,29.90
2017-09-20T07:43:44.402Z,31.27
2017-09-20T07:46:10.338Z,31.17
2017-09-20T07:48:36.251Z,30.30
2017-09-20T07:51:02.189Z,34.80
2017-09-20T07:53:32.470Z,32.97
2017-09-20T07:56:02.318Z,31.93
2017-09-20T07:58:28.328Z,28.73
2017-09-20T08:00:55.057Z,30.07
2017-09-20T08:03:23.037Z,30.50
2017-09-20T08:05:50.870Z,31.87
2017-09-20T08:08:17.872Z,29.43
2017-09-20T08:10:49.433Z,31.50
2017-09-20T08:13:20.257Z,29.57
2017-09-20T08:15:53.618Z,27.20
2017-09-20T08:18:19.630Z,30.60
2017-09-20T08:20:45.630Z,28.87
2017-09-20T08:23:20.092Z,31.37
2017-09-20T08:25:53.713Z,28.90
2017-09-20T08:28:19.695Z,28.03
2017-09-20T08:30:57.790Z,28.10
2017-09-20T08:33:27.280Z,28.90
2017-09-20T08:35:57.843Z,30.20
2017-09-20T08:38:37.911Z,29.63
2017-09-20T08:41:03.876Z,32.17
2017-09-20T08:43:30.858Z,29.93
2017-09-20T08:46:00.263Z,31.00
2017-09-20T08:48:32.844Z,31.77
2017-09-20T08:50:59.911Z,30.93
2017-09-20T08:53:25.862Z,32.20
2017-09-20T08:55:51.870Z,30.40
2017-09-20T08:58:22.074Z,29.30
2017-09-20T09:00:50.051Z,29.23
2017-09-20T09:03:18.025Z,32.57
2017-09-20T09:05:52.469Z,30.80
2017-09-20T09:08:19.485Z,28.90
2017-09-20T09:10:48.325Z,28.37
2017-09-20T09:13:25.075Z,31.53
2017-09-20T09:15:54.686Z,28.07
2017-09-20T09:18:26.021Z,28.70
2017-09-20T09:21:02.529Z,29.17
2017-09-20T09:23:28.529Z,30.00
2017-09-20T09:25:54.577Z,29.40
2017-09-20T09:28:22.597Z,27.60
2017-09-20T09:30:48.693Z,27.37
2017-09-20T09:33:16.750Z,26.00
2017-09-20T09:35:42.702Z,26.57
2017-09-20T09:38:08.689Z,27.37
2017-09-20T09:40:35.394Z,28.50
2017-09-20T09:43:01.357Z,27.97
2017-09-20T09:45:28.105Z,27.90
2017-09-20T09:47:58.420Z,26.40
2017-09-20T09:50:26.103Z,27.87
2017-09-20T09:52:52.068Z,26.93
2017-09-20T09:55:18.021Z,25.53
2017-09-20T09:57:44.982Z,28.50
2017-09-20T10:00:17.767Z,26.33
2017-09-20T10:02:44.489Z,26.57
2017-09-20T10:05:10.539Z,26.40
2017-09-20T10:07:37.247Z,27.77
2017-09-20T10:10:03.217Z,25.40
2017-09-20T10:12:29.904Z,26.80
2017-09-20T10:14:55.866Z,23.30
2017-09-20T10:17:21.843Z,23.90
2017-09-20T10:19:47.812Z,23.70
2017-09-20T10:22:13.780Z,22.57
2017-09-20T10:24:41.486Z,22.90
2017-09-20T10:27:07.440Z,23.03
2017-09-20T10:29:33.394Z,20.23
2017-09-20T10:31:59.394Z,21.83
2017-09-20T10:34:25.368Z,21.23
2017-09-20T10:36:52.077Z,20.93
2017-09-20T10:39:18.033Z,20.00
2017-09-20T10:41:44.754Z,24.57
2017-09-20T10:44:10.686Z,23.80
2017-09-20T10:46:36.634Z,24.23
2017-09-20T10:49:03.318Z,21.93
2017-09-20T10:51:29.254Z,23.47
2017-09-20T10:53:56.473Z,27.83
2017-09-20T10:56:22.413Z,21.27
2017-09-20T10:58:48.346Z,22.83
2017-09-20T11:01:14.368Z,21.60
2017-09-20T11:03:40.298Z,20.10
2017-09-20T11:06:09.974Z,21.57
2017-09-20T11:08:35.994Z,21.27
2017-09-20T11:11:01.939Z,19.57
2017-09-20T11:13:32.059Z,22.57
2017-09-20T11:15:58.000Z,20.73
2017-09-20T11:18:27.388Z,21.70
2017-09-20T11:20:54.367Z,22.50
2017-09-20T11:23:23.469Z,20.73
2017-09-20T11:25:50.104Z,20.47
2017-09-20T11:28:18.908Z,19.97
2017-09-20T11:30:47.014Z,20.00
2017-09-20T11:33:12.996Z,19.53
2017-09-20T11:35:46.239Z,20.00
2017-09-20T11:38:12.209Z,20.57
2017-09-20T11:40:42.756Z,19.87
2017-09-20T11:43:14.493Z,20.13
2017-09-20T11:45:44.030Z,19.47
2017-09-20T11:48:12.813Z,20.63
2017-09-20T11:50:45.001Z,18.77
2017-09-20T11:53:15.393Z,21.10
2017-09-20T11:55:42.810Z,20.73
2017-09-20T11:58:23.474Z,22.57
2017-09-20T12:00:49.446Z,20.77
2017-09-20T12:03:22.450Z,20.53
2017-09-20T12:05:49.203Z,21.90
2017-09-20T12:08:15.952Z,19.20
2017-09-20T12:10:42.663Z,23.10
2017-09-20T12:13:12.483Z,22.70
2017-09-20T12:15:38.548Z,21.53
2017-09-20T12:18:04.549Z,20.00
2017-09-20T12:20:35.185Z,21.37
2017-09-20T12:23:04.995Z,20.30
2017-09-20T12:25:34.506Z,21.73
2017-09-20T12:28:00.535Z,20.50
2017-09-20T12:30:31.433Z,21.23
2017-09-20T12:32:57.417Z,19.77
2017-09-20T12:35:25.185Z,19.87
2017-09-20T12:37:51.179Z,19.70
2017-09-20T12:40:18.153Z,20.07
2017-09-20T12:42:44.158Z,21.20
2017-09-20T12:45:14.182Z,18.67
2017-09-20T12:47:40.109Z,16.77
2017-09-20T12:50:09.230Z,15.30
2017-09-20T12:52:35.259Z,14.53
2017-09-20T12:55:03.230Z,15.10
2017-09-20T12:57:30.207Z,17.33
2017-09-20T12:59:56.921Z,24.50
2017-09-20T13:02:24.707Z,15.27
2017-09-20T13:04:51.430Z,18.37
2017-09-20T13:07:17.465Z,18.17
2017-09-20T13:09:45.374Z,17.37
2017-09-20T13:12:14.139Z,17.53
2017-09-20T13:14:44.677Z,16.57
2017-09-20T13:17:10.761Z,15.10
2017-09-20T13:19:38.754Z,16.70
2017-09-20T13:22:06.734Z,16.53
2017-09-20T13:24:33.695Z,18.00
2017-09-20T13:27:02.244Z,17.87
2017-09-20T13:29:39.092Z,17.50
2017-09-20T13:32:09.626Z,19.93
2017-09-20T13:34:36.655Z,18.17
2017-09-20T13:37:03.390Z,16.63
2017-09-20T13:39:32.066Z,17.70
2017-09-20T13:41:57.974Z,16.93
2017-09-20T13:44:25.963Z,15.77
2017-09-20T13:46:53.969Z,16.57
2017-09-20T13:49:20.901Z,16.30
2017-09-20T13:51:47.863Z,16.77
2017-09-20T13:54:13.883Z,15.77
2017-09-20T13:56:40.622Z,16.07
2017-09-20T13:59:07.570Z,14.23
2017-09-20T14:01:33.626Z,18.47
2017-09-20T14:04:02.349Z,16.40
2017-09-20T14:06:28.334Z,13.70
2017-09-20T14:08:55.327Z,16.70
2017-09-20T14:11:28.099Z,16.60
2017-09-20T14:14:08.470Z,17.87
2017-09-20T14:16:35.551Z,13.60
2017-09-20T14:19:10.333Z,14.30
2017-09-20T14:21:45.858Z,14.67
2017-09-20T14:24:11.866Z,12.93
2017-09-20T14:26:37.786Z,14.70
2017-09-20T14:29:03.710Z,14.93
2017-09-20T14:31:29.642Z,13.67
2017-09-20T14:33:56.554Z,12.63
2017-09-20T14:36:26.647Z,12.50
2017-09-20T14:38:53.314Z,11.20
2017-09-20T14:41:19.229Z,10.73
2017-09-20T14:43:45.942Z,11.23
2017-09-20T14:46:11.910Z,9.97
2017-09-20T14:48:37.906Z,8.97
2017-09-20T14:51:03.828Z,8.37
2017-09-20T14:53:29.771Z,9.00
2017-09-20T14:55:56.434Z,9.30
2017-09-20T14:58:22.382Z,8.50
2017-09-20T15:00:48.333Z,7.60
2017-09-20T15:03:14.267Z,8.70
2017-09-20T15:05:40.221Z,10.10
2017-09-20T15:08:06.136Z,8.70
2017-09-20T15:10:32.081Z,8.53
2017-09-20T15:12:58.000Z,7.93
2017-09-20T15:15:23.926Z,8.07
2017-09-20T15:17:49.861Z,7.60
2017-09-20T15:20:15.793Z,9.30
2017-09-20T15:22:41.741Z,7.50
2017-09-20T15:25:07.665Z,7.67
2017-09-20T15:27:33.590Z,7.40
2017-09-20T15:29:59.549Z,6.13
2017-09-20T15:32:25.458Z,5.77
2017-09-20T15:34:52.473Z,5.97
2017-09-20T15:37:18.497Z,5.70
2017-09-20T15:39:49.129Z,7.87
2017-09-20T15:42:15.050Z,7.77
2017-09-20T15:44:40.987Z,7.07
2017-09-20T15:47:06.998Z,6.70
2017-09-20T15:49:33.979Z,7.53
2017-09-20T15:52:11.154Z,7.20
2017-09-20T15:54:39.806Z,7.40
2017-09-20T15:57:05.755Z,7.97
2017-09-20T15:59:31.682Z,11.40
2017-09-20T16:01:57.600Z,8.90
2017-09-20T16:04:23.534Z,9.00
2017-09-20T16:06:49.469Z,8.27
2017-09-20T16:09:19.071Z,7.50
2017-09-20T16:11:48.566Z,8.17
2017-09-20T16:14:14.485Z,7.30
2017-09-20T16:16:40.394Z,8.20
2017-09-20T16:19:06.338Z,7.73
2017-09-20T16:21:32.289Z,7.57
2017-09-20T16:23:58.205Z,8.50
2017-09-20T16:26:24.137Z,7.70
2017-09-20T16:28:50.068Z,10.47
2017-09-20T16:31:17.014Z,9.87
2017-09-20T16:33:46.035Z,9.47
2017-09-20T16:36:11.945Z,9.90
2017-09-20T16:38:38.617Z,10.47
2017-09-20T16:41:05.270Z,9.90
2017-09-20T16:43:31.957Z,10.77
2017-09-20T16:45:57.899Z,21.20
2017-09-20T16:48:23.838Z,9.50
2017-09-20T16:50:53.981Z,11.43
2017-09-20T16:53:20.638Z,10.40
2017-09-20T16:55:47.289Z,11.07
2017-09-20T16:58:13.961Z,11.17
2017-09-20T17:00:39.904Z,11.23
2017-09-20T17:03:05.793Z,11.30
2017-09-20T17:05:31.741Z,11.10
2017-09-20T17:08:02.517Z,13.30
2017-09-20T17:10:32.036Z,12.07
2017-09-20T17:12:57.961Z,11.40
2017-09-20T17:15:23.886Z,12.10
2017-09-20T17:17:52.349Z,11.80
2017-09-20T17:20:18.327Z,13.33
2017-09-20T17:22:45.005Z,14.63
2017-09-20T17:25:10.922Z,14.63
2017-09-20T17:27:36.824Z,15.60
2017-09-20T17:30:04.471Z,14.50
2017-09-20T17:32:30.381Z,13.73
2017-09-20T17:34:56.353Z,14.47
2017-09-20T17:37:22.263Z,15.63
2017-09-20T17:39:48.917Z,18.40
2017-09-20T17:42:14.842Z,17.57
2017-09-20T17:44:52.338Z,16.37
2017-09-20T17:47:18.314Z,17.77
2017-09-20T17:49:44.241Z,20.20
2017-09-20T17:52:10.151Z,19.30
2017-09-20T17:54:36.068Z,19.40
2017-09-20T17:57:04.113Z,18.40
2017-09-20T17:59:33.071Z,22.30
2017-09-20T18:02:02.947Z,20.30
2017-09-20T18:04:29.942Z,22.20
2017-09-20T18:07:04.745Z,19.97
2017-09-20T18:09:34.162Z,19.90
2017-09-20T18:12:02.094Z,24.27
2017-09-20T18:14:33.557Z,21.33
2017-09-20T18:17:01.622Z,20.40
2017-09-20T18:19:29.047Z,20.50
2017-09-20T18:22:03.270Z,21.07
2017-09-20T18:24:29.299Z,20.10
2017-09-20T18:26:55.386Z,21.20
2017-09-20T18:29:21.367Z,24.90
2017-09-20T18:31:55.886Z,21.87
2017-09-20T18:34:28.286Z,22.93
2017-09-20T18:36:54.214Z,20.70
2017-09-20T18:39:28.032Z,19.70
2017-09-20T18:41:57.805Z,20.30
2017-09-20T18:44:30.317Z,18.53
2017-09-20T18:46:59.696Z,20.13
2017-09-20T18:49:28.394Z,21.10
2017-09-20T18:55:08.510Z,20.53
2017-09-20T18:57:35.503Z,21.50
2017-09-20T19:00:04.795Z,20.20
2017-09-20T19:02:30.751Z,22.77
2017-09-20T19:04:56.657Z,20.70
2017-09-20T19:07:22.606Z,21.13
2017-09-20T19:09:48.526Z,20.70
2017-09-20T19:12:15.210Z,21.93
2017-09-20T19:14:42.179Z,19.10
2017-09-20T19:17:08.118Z,20.07
2017-09-20T19:19:35.078Z,18.77
2017-09-20T19:22:07.502Z,21.20
2017-09-20T19:24:40.964Z,21.70
2017-09-20T19:27:13.607Z,20.53
2017-09-20T19:29:39.563Z,20.43
2017-09-20T19:32:22.576Z,21.37
2017-09-20T19:34:52.190Z,21.53
2017-09-20T19:37:18.862Z,20.50
2017-09-20T19:39:48.129Z,20.97
2017-09-20T19:42:14.150Z,21.43
2017-09-20T19:44:40.070Z,20.07
2017-09-20T19:47:06.194Z,21.67
2017-09-20T19:49:35.937Z,20.27
2017-09-20T19:52:11.145Z,21.57
2017-09-20T19:54:37.098Z,19.60
2017-09-20T19:57:03.018Z,19.53
2017-09-20T19:59:29.706Z,21.30
2017-09-20T20:01:56.917Z,21.27
2017-09-20T20:04:22.853Z,22.03
2017-09-20T20:06:48.846Z,22.00
2017-09-20T20:09:14.905Z,20.63
2017-09-20T20:11:40.882Z,19.20
2017-09-20T20:14:18.786Z,20.10
2017-09-20T20:16:58.821Z,19.90
2017-09-20T20:19:32.833Z,20.87
2017-09-20T20:22:05.498Z,23.30
2017-09-20T20:24:34.173Z,24.57
2017-09-20T20:27:00.097Z,24.80
2017-09-20T20:29:26.150Z,24.87
2017-09-20T20:31:52.837Z,21.47
2017-09-20T20:34:19.833Z,22.50
2017-09-20T20:36:46.586Z,24.70
2017-09-20T20:39:14.358Z,23.40
2017-09-20T20:41:41.029Z,23.73
2017-09-20T20:44:27.758Z,23.60
2017-09-20T20:46:58.454Z,22.90
2017-09-20T20:49:27.957Z,22.63
2017-09-20T20:51:58.473Z,23.50
2017-09-20T20:54:27.157Z,22.90
2017-09-20T20:56:53.125Z,23.03
2017-09-20T20:59:21.158Z,23.73
2017-09-20T21:01:49.122Z,22.03
2017-09-20T21:04:15.186Z,19.10
2017-09-20T21:06:42.627Z,19.77
2017-09-20T21:09:09.371Z,22.43
2017-09-20T21:11:36.116Z,20.77
2017-09-20T21:14:02.138Z,21.57
2017-09-20T21:16:30.147Z,22.27
2017-09-20T21:18:56.154Z,23.53
2017-09-20T21:21:22.168Z,21.17
2017-09-20T21:23:48.201Z,22.30
2017-09-20T21:26:14.121Z,20.20
2017-09-20T21:28:40.155Z,20.30
2017-09-20T21:31:10.068Z,23.20
2017-09-20T21:33:36.117Z,21.87
2017-09-20T21:36:08.476Z,22.60
2017-09-20T21:38:34.542Z,20.90
2017-09-20T21:41:01.582Z,19.93
2017-09-20T21:43:31.591Z,20.30
2017-09-20T21:45:57.606Z,18.87
2017-09-20T21:48:26.634Z,22.53
2017-09-20T21:50:53.352Z,20.47
2017-09-20T21:53:21.122Z,20.37
2017-09-20T21:55:47.159Z,22.20
2017-09-20T21:58:17.277Z,22.30
2017-09-20T22:00:43.314Z,21.87
2017-09-20T22:03:10.039Z,21.37
2017-09-20T22:05:40.069Z,21.70
2017-09-20T22:08:07.063Z,21.27
2017-09-20T22:10:36.231Z,23.17
2017-09-20T22:13:04.211Z,23.03
2017-09-20T22:15:47.991Z,23.60
2017-09-20T22:18:27.385Z,23.83
2017-09-20T22:21:07.611Z,23.20
2017-09-20T22:23:46.193Z,23.33
2017-09-20T22:26:24.579Z,24.20
2017-09-20T22:28:51.641Z,24.93
2017-09-20T22:31:18.666Z,24.20
2017-09-20T22:33:47.368Z,22.90
2017-09-20T22:36:15.196Z,23.33
2017-09-20T22:38:42.157Z,24.90
2017-09-20T22:41:08.196Z,23.30
2017-09-20T22:43:37.506Z,22.67
2017-09-20T22:46:05.490Z,25.13
2017-09-20T22:48:33.284Z,25.47
2017-09-20T22:51:01.221Z,26.10
2017-09-20T22:53:27.266Z,25.50
2017-09-20T22:55:53.962Z,25.40
2017-09-20T22:58:24.929Z,26.17
2017-09-20T23:00:50.937Z,25.17
2017-09-20T23:03:24.274Z,25.40
2017-09-20T23:05:56.621Z,23.57
2017-09-20T23:08:22.702Z,24.90
2017-09-20T23:10:48.686Z,25.57
2017-09-20T23:13:14.781Z,25.33
2017-09-20T23:15:42.786Z,26.87
2017-09-20T23:18:08.839Z,26.13
2017-09-20T23:20:35.566Z,25.03
2017-09-20T23:23:01.630Z,26.80
2017-09-20T23:25:27.582Z,26.57
2017-09-20T23:27:53.569Z,26.30
2017-09-20T23:30:22.253Z,27.20
2017-09-20T23:32:50.212Z,30.27
2017-09-20T23:35:17.237Z,29.43
2017-09-20T23:37:45.252Z,28.60
2017-09-20T23:40:12.201Z,28.70
2017-09-20T23:42:38.149Z,27.63
2017-09-20T23:45:04.895Z,29.37
2017-09-20T23:47:35.106Z,28.50
2017-09-20T23:50:05.658Z,28.63
2017-09-20T23:52:31.650Z,27.13
2017-09-20T23:54:57.577Z,27.67
2017-09-20T23:57:23.602Z,27.30
2017-09-20T23:59:54.150Z,27.47
